SNCO2: N. Canadian River at Shawnee, OK

Data processed at Fri Mar 09 2018 22:59


All information presented herein is the property of the government of the United States of America and may be revised or deleted at any time without prior notice.
Dissemination of this information without the expressed written consent of the Public Affairs Office, Tulsa District U.S. Army Corps of Engineers is strictly prohibited.
These data are gathered electronically and, as presented, have not undergone any form of quality control. These data are not guaranteed to be valid or correct.
Go to home page.
Go to station list.

Upstream stations:

Downstream station:
Previous Day
Next Day
Current Day
    
SHEF ID:       SNCO2     North Canadian River at Shawnee,
STATION TYPE:  

                STAGE  RIV-FLOW  BAT-LOAD
                   ft       cfs      volt
              Ccp-Rev   Ccp-Rev   Ccp-Rev
(US/Central)
03/07 00:00      9.52       139     12.77
03/07 01:00      9.66       181     12.71
03/07 02:00      9.65       177     12.71
03/07 03:00      9.64       174     12.71
03/07 04:00      9.63       171     12.65
03/07 05:00      9.63       171     12.65
03/07 06:00      9.62       168     12.60
03/07 07:00      9.62       168     12.60
03/07 08:00      9.47       125     13.00
03/07 09:00      9.47       125     13.53
03/07 10:00      9.43       115     13.59
03/07 11:00      9.51       136     13.71
03/07 12:00      9.46       123     13.88
03/07 13:00      9.47       125     14.00
03/07 14:00      9.44       117     13.83
03/07 15:00      9.43       115     13.53
03/07 16:00      9.48       128     13.42
03/07 17:00      9.48       128     13.36
03/07 18:00      9.58       156     13.30
03/07 19:00      9.59       159     13.07
03/07 20:00      9.59       159     12.95
03/07 21:00      9.59       159     12.89
03/07 22:00      9.59       159     12.83
03/07 23:00      9.59       159     12.77